Terminal Aerodrome Forecast
Issued by NWS

Home | Current Version | Previous Version | Text Only | Print | Product List | Glossary On
Versions: 1 2 3 4 5 6 7 8 9 10 11 12 13 14 15 16 17 18 19 20
000
FTUS43 KDTX 302338
TAFMBS
TAF
KMBS 302338Z 0100/0124 05010KT 6SM -SHRA SCT017 OVC025
      TEMPO 0100/0104 4SM -RA OVC017
     FM010400 05010KT 6SM -SHRA BR BKN007 OVC015
     FM011300 08005KT 4SM -SHRA BR OVC008
     FM011900 10005KT 6SM -SHRA OVC015=

USA.gov is the U.S. government's official web portal to all federal, state and local government web resources and services.